Weather History for Monroe, MI

Change the Weather History Date:

Saturday, March 10, 2012

  Actual Average Record
Temperature  
Mean Temperature 34 °F -  
Max Temperature 48 °F 44 °F 67 °F (1977)
Min Temperature 21 °F 26 °F 8 °F (1933)
Degree Days  
Heating Degree Days 30    
Moisture  
Dew Point 18 °F    
Average Humidity 50    
Maximum Humidity 80    
Minimum Humidity 34    
Precipitation  
Precipitation 0.00 in - - ()
Sea Level Pressure  
Sea Level Pressure 30.43 in    
Wind  
Wind Speed 7 mph (South)    
Max Wind Speed 18 mph    
Max Gust Speed 23 mph    
Visibility 10 miles    
Events      
Averages and records for this station are not official NWS values.
T = Trace of Precipitation, MM = Missing Value Source: NWS Daily Summary

Daily Weather History Graph

Daily Weather History Graph

Search for Another Location

Airport:

Trip Planner

Search our weather history database for the weather conditions in past years. The results will help you decide how hot, cold, wet, or windy it might be!

Date:

Astronomy

Mar. 10, 2012 Rise Set
Actual Time 6:53 AM EST 6:35 PM EST
Civil Twilight 6:25 AM EST 7:02 PM EST
Nautical Twilight 5:53 AM EST 7:35 PM EST
Astronomical Twilight 5:20 AM EST 8:08 PM EST
Moon 9:50 PM EST (3/10) 7:44 AM EST (3/10)
Length of Visible Light 12h 37m
Length of Day
11h 41m
Waning Gibbous, 93% of the Moon is Illuminated
Mar 10
Waning Gibbous
Mar 14
Last Quarter
Mar 22
New
Mar 30
First Quarter
Apr 6
Full

Hourly Weather History & Observations

Time (EST) Temp. Windchill Dew Point Humidity Pressure Visibility Wind Dir Wind Speed Gust Speed Precip Events Conditions
12:15 AM 26.6 °F 18.2 °F 12.2 °F 55% 30.51 in 10.0 mi North 8.1 mph - N/A   Clear
12:35 AM 26.6 °F 20.0 °F 12.2 °F 55% 30.52 in 10.0 mi North 5.8 mph - N/A   Clear
12:55 AM 26.6 °F 22.6 °F 10.4 °F 51% 30.53 in 10.0 mi NNW 3.5 mph - N/A   Clear
1:15 AM 24.8 °F - 12.2 °F 59% 30.53 in 10.0 mi North 2.3 mph - N/A   Clear
1:35 AM 24.8 °F - 10.4 °F 54% 30.52 in 10.0 mi NE 2.3 mph - N/A   Clear
1:55 AM 24.8 °F 20.5 °F 10.4 °F 54% 30.52 in 10.0 mi NNE 3.5 mph - N/A   Clear
2:15 AM 24.8 °F 19.1 °F 10.4 °F 54% 30.51 in 10.0 mi NE 4.6 mph - N/A   Clear
2:55 AM 24.8 °F - 10.4 °F 54% 30.51 in 10.0 mi NNE 2.3 mph - N/A   Clear
3:15 AM 24.8 °F - 10.4 °F 54% 30.51 in 10.0 mi NE 2.3 mph - N/A   Clear
3:35 AM 23.0 °F - 12.2 °F 63% 30.50 in 10.0 mi East 1.2 mph - N/A   Clear
3:55 AM 23.0 °F - 12.2 °F 63% 30.50 in 10.0 mi SE 1.2 mph - N/A   Clear
4:15 AM 23.0 °F - 10.4 °F 59% 30.52 in 10.0 mi SE 1.2 mph - N/A   Clear
4:35 AM 23.0 °F - 12.2 °F 63% 30.52 in 10.0 mi Calm Calm - N/A   Clear
5:15 AM 21.2 °F - 15.8 °F 80% 30.53 in 10.0 mi NW 1.2 mph - N/A   Clear
5:35 AM 21.2 °F - 14.0 °F 74% 30.53 in 10.0 mi Calm Calm - N/A   Clear
5:55 AM 24.8 °F - 15.8 °F 69% 30.54 in 10.0 mi North 1.2 mph - N/A   Clear
6:15 AM 24.8 °F - 15.8 °F 69% 30.54 in 10.0 mi NNE 1.2 mph - N/A   Clear
6:35 AM 24.8 °F - 17.6 °F 74% 30.54 in 10.0 mi East 1.2 mph - N/A   Clear
6:55 AM 24.8 °F - 17.6 °F 74% 30.54 in 10.0 mi East 2.3 mph - N/A   Clear
7:15 AM 24.8 °F 20.5 °F 14.0 °F 64% 30.54 in 10.0 mi East 3.5 mph - N/A   Clear
7:35 AM 26.6 °F - 14.0 °F 59% 30.54 in 10.0 mi ESE 1.2 mph - N/A   Clear
7:55 AM 26.6 °F - 12.2 °F 55% 30.54 in 10.0 mi ESE 1.2 mph - N/A   Clear
8:15 AM 28.4 °F 22.2 °F 12.2 °F 51% 30.55 in 10.0 mi South 5.8 mph - N/A   Clear
8:35 AM 28.4 °F 19.7 °F 12.2 °F 51% 30.54 in 10.0 mi South 9.2 mph - N/A   Clear
8:55 AM 30.2 °F 21.9 °F 12.2 °F 47% 30.53 in 10.0 mi SSE 9.2 mph - N/A   Clear
9:15 AM 30.2 °F 21.9 °F 14.0 °F 51% 30.53 in 10.0 mi South 9.2 mph - N/A   Clear
9:35 AM 30.2 °F 20.8 °F 12.2 °F 47% 30.52 in 10.0 mi South 11.5 mph - N/A   Clear
10:15 AM 32.0 °F 23.0 °F 15.8 °F 51% 30.51 in 10.0 mi South 11.5 mph - N/A   Clear
10:35 AM 32.0 °F 22.1 °F 15.8 °F 51% 30.50 in 10.0 mi South 13.8 mph - N/A   Clear
10:55 AM 32.0 °F 22.5 °F 15.8 °F 51% 30.50 in 10.0 mi South 12.7 mph 19.6 mph N/A   Clear
11:15 AM 33.8 °F 24.3 °F 17.6 °F 52% 30.49 in 10.0 mi South 13.8 mph - N/A   Clear
11:55 AM 35.6 °F 27.1 °F 17.6 °F 48% 30.46 in 10.0 mi South 12.7 mph 18.4 mph N/A   Clear
12:15 PM 37.4 °F 30.8 °F 19.4 °F 48% 30.46 in 10.0 mi SSW 9.2 mph - N/A   Clear
12:35 PM 37.4 °F 31.4 °F 19.4 °F 48% 30.45 in 10.0 mi SSW 8.1 mph 18.4 mph N/A   Clear
12:55 PM 39.2 °F 32.0 °F 19.4 °F 45% 30.44 in 10.0 mi SSW 11.5 mph - N/A   Clear
1:15 PM 41.0 °F 32.8 °F 19.4 °F 42% 30.43 in 10.0 mi SSW 16.1 mph 20.7 mph N/A   Clear
1:35 PM 42.8 °F 35.4 °F 19.4 °F 39% 30.41 in 10.0 mi SSW 15.0 mph 20.7 mph N/A   Clear
1:55 PM 42.8 °F 36.2 °F 19.4 °F 39% 30.40 in 10.0 mi SW 12.7 mph 20.7 mph N/A   Clear
2:15 PM 44.6 °F 38.1 °F 21.2 °F 39% 30.39 in 10.0 mi SSW 13.8 mph - N/A   Clear
2:35 PM 44.6 °F 37.4 °F 21.2 °F 39% 30.38 in 10.0 mi SSW 16.1 mph 23.0 mph N/A   Clear
2:55 PM 46.4 °F 41.1 °F 21.2 °F 37% 30.37 in 10.0 mi SSW 11.5 mph 18.4 mph N/A   Clear
3:35 PM 46.4 °F 39.2 °F 21.2 °F 37% 30.35 in 10.0 mi SSW 18.4 mph 23.0 mph N/A   Clear
3:55 PM 48.2 °F - 21.2 °F 34% 30.34 in 10.0 mi SSW 16.1 mph 23.0 mph N/A   Clear
4:15 PM 48.2 °F - 21.2 °F 34% 30.33 in 10.0 mi SSW 17.3 mph 23.0 mph N/A   Clear
4:35 PM 48.2 °F - 21.2 °F 34% 30.32 in 10.0 mi SSW 16.1 mph - N/A   Clear
4:55 PM 48.2 °F - 23.0 °F 37% 30.31 in 10.0 mi SW 13.8 mph 17.3 mph N/A   Clear
5:30 PM 48.2 °F - 21.2 °F 34% 30.31 in 10.0 mi SW 15.0 mph 20.7 mph N/A   Clear
5:51 PM 48.2 °F - 21.2 °F 34% 30.30 in 10.0 mi SSW 12.7 mph 17.3 mph N/A   Clear
6:11 PM 46.4 °F 41.1 °F 23.0 °F 40% 30.29 in 10.0 mi SSW 11.5 mph 17.3 mph N/A   Clear
6:32 PM 46.4 °F 41.5 °F 23.0 °F 40% 30.29 in 10.0 mi SSW 10.4 mph - N/A   Clear
6:52 PM 46.4 °F 41.1 °F 24.8 °F 43% 30.29 in 10.0 mi SSW 11.5 mph 18.4 mph N/A   Clear
7:12 PM 46.4 °F 40.4 °F 24.8 °F 43% 30.29 in 10.0 mi SSW 13.8 mph - N/A   Clear
7:32 PM 46.4 °F 41.5 °F 24.8 °F 43% 30.28 in 10.0 mi SSW 10.4 mph - N/A   Clear
7:52 PM 44.6 °F 39.2 °F 24.8 °F 46% 30.28 in 10.0 mi SSW 10.4 mph - N/A   Clear
8:12 PM 44.6 °F 39.7 °F 24.8 °F 46% 30.27 in 10.0 mi SSW 9.2 mph - N/A   Clear
8:27 PM 44.6 °F 39.2 °F 24.8 °F 46% 30.27 in 10.0 mi SSW 10.4 mph - N/A   Clear
8:45 PM 44.6 °F 38.8 °F 24.8 °F 46% 30.27 in 10.0 mi SSW 11.5 mph 17.3 mph N/A   Clear
9:15 PM 44.6 °F 38.8 °F 24.8 °F 46% 30.28 in 10.0 mi SSW 11.5 mph 17.3 mph N/A   Clear
9:30 PM 44.6 °F 39.2 °F 24.8 °F 46% 30.27 in 10.0 mi SSW 10.4 mph - N/A   Clear
9:52 PM 44.6 °F 38.4 °F 24.8 °F 46% 30.27 in 10.0 mi SSW 12.7 mph 19.6 mph N/A   Clear
10:14 PM 44.6 °F 38.4 °F 24.8 °F 46% 30.27 in 10.0 mi SSW 12.7 mph 19.6 mph N/A   Clear
10:29 PM 44.6 °F 38.4 °F 24.8 °F 46% 30.26 in 10.0 mi SSW 12.7 mph - N/A   Clear
10:54 PM 44.6 °F 39.2 °F 24.8 °F 46% 30.26 in 10.0 mi SW 10.4 mph 17.3 mph N/A   Clear
11:08 PM 44.6 °F 38.8 °F 24.8 °F 46% 30.27 in 10.0 mi SSW 11.5 mph 18.4 mph N/A   Clear
11:32 PM 44.6 °F 38.8 °F 24.8 °F 46% 30.27 in 10.0 mi SSW 11.5 mph 17.3 mph N/A   Clear
11:52 PM 42.8 °F 37.5 °F 24.8 °F 49% 30.27 in 10.0 mi SW 9.2 mph 16.1 mph N/A   Clear